createdAt,value
2024-01-16T00:01:03.321Z,1.75
2024-01-16T00:03:31.117Z,1.67
2024-01-16T00:06:00.444Z,1.65
2024-01-16T00:08:28.412Z,1.77
2024-01-16T00:10:56.149Z,1.79
2024-01-16T00:13:23.885Z,1.78
2024-01-16T00:15:51.735Z,1.84
2024-01-16T00:18:20.030Z,1.73
2024-01-16T00:20:47.919Z,1.73
2024-01-16T00:23:17.289Z,1.73
2024-01-16T00:25:45.466Z,1.58
2024-01-16T00:28:13.241Z,1.71
2024-01-16T00:30:40.925Z,1.62
2024-01-16T00:33:08.792Z,1.68
2024-01-16T00:35:36.607Z,1.58
2024-01-16T00:38:04.423Z,1.61
2024-01-16T00:40:33.585Z,1.63
2024-01-16T00:43:01.354Z,1.58
2024-01-16T00:45:29.247Z,1.61
2024-01-16T00:47:57.129Z,1.67
2024-01-16T00:50:25.565Z,1.58
2024-01-16T00:52:53.447Z,1.64
2024-01-16T00:55:21.253Z,1.74
2024-01-16T00:57:50.330Z,1.81
2024-01-16T01:00:18.561Z,1.65
2024-01-16T01:02:46.406Z,1.73
2024-01-16T01:05:14.394Z,1.61
2024-01-16T01:07:42.264Z,1.65
2024-01-16T01:10:10.987Z,1.53
2024-01-16T01:12:38.866Z,1.63
2024-01-16T01:15:09.422Z,1.58
2024-01-16T01:17:37.383Z,1.61
2024-01-16T01:20:05.919Z,1.66
2024-01-16T01:22:33.738Z,1.61
2024-01-16T01:25:01.538Z,1.59
2024-01-16T01:27:29.262Z,1.60
2024-01-16T01:29:57.199Z,1.53
2024-01-16T01:32:28.147Z,1.59
2024-01-16T01:34:56.074Z,1.51
2024-01-16T01:37:23.810Z,1.52
2024-01-16T01:39:51.550Z,1.50
2024-01-16T01:42:19.471Z,1.49
2024-01-16T01:44:47.290Z,1.38
2024-01-16T01:47:15.444Z,1.24
2024-01-16T01:49:44.779Z,1.19
2024-01-16T01:52:12.803Z,1.16
2024-01-16T01:54:42.474Z,1.28
2024-01-16T01:57:11.276Z,1.21
2024-01-16T01:59:39.157Z,1.27
2024-01-16T02:02:06.991Z,1.32
2024-01-16T02:04:36.494Z,1.36
2024-01-16T02:07:06.567Z,1.33
2024-01-16T02:09:34.544Z,1.30
2024-01-16T02:12:02.789Z,1.37
2024-01-16T02:14:30.635Z,1.43
2024-01-16T02:16:58.408Z,1.32
2024-01-16T02:19:27.210Z,1.36
2024-01-16T02:22:00.615Z,1.45
2024-01-16T02:24:32.691Z,1.47
2024-01-16T02:27:00.454Z,1.35
2024-01-16T02:29:28.320Z,1.37
2024-01-16T02:31:56.075Z,1.35
2024-01-16T02:34:24.243Z,1.23
2024-01-16T02:36:52.091Z,1.23
2024-01-16T02:39:19.840Z,1.17
2024-01-16T02:41:48.973Z,1.16
2024-01-16T02:44:16.813Z,1.12
2024-01-16T02:46:44.862Z,1.07
2024-01-16T02:49:13.018Z,1.07
2024-01-16T02:51:40.744Z,1.02
2024-01-16T02:54:09.080Z,1.00
2024-01-16T02:56:37.126Z,0.94
2024-01-16T02:59:06.690Z,0.98
2024-01-16T03:01:34.530Z,0.91
2024-01-16T03:04:02.271Z,1.01
2024-01-16T03:06:30.880Z,1.10
2024-01-16T03:08:59.048Z,1.02
2024-01-16T03:11:26.878Z,0.99
2024-01-16T03:13:54.723Z,1.05
2024-01-16T03:16:23.965Z,0.98
2024-01-16T03:18:52.279Z,1.02
2024-01-16T03:21:20.124Z,0.94
2024-01-16T03:23:47.930Z,0.87
2024-01-16T03:26:16.071Z,0.75
2024-01-16T03:28:44.128Z,0.72
2024-01-16T03:31:11.950Z,0.72
2024-01-16T03:33:43.718Z,0.74
2024-01-16T03:36:13.986Z,0.57
2024-01-16T03:38:42.244Z,0.48
2024-01-16T03:41:10.252Z,0.39
2024-01-16T03:43:38.067Z,0.30
2024-01-16T03:46:06.180Z,0.38
2024-01-16T03:48:34.197Z,0.37
2024-01-16T03:51:03.752Z,0.37
2024-01-16T03:53:31.646Z,0.31
2024-01-16T03:55:59.577Z,0.25
2024-01-16T03:58:27.415Z,0.31
2024-01-16T04:00:55.222Z,0.30
2024-01-16T04:03:23.073Z,0.29
2024-01-16T04:05:51.023Z,0.30
2024-01-16T04:08:20.266Z,0.27
2024-01-16T04:10:48.240Z,0.32
2024-01-16T04:13:16.026Z,0.36
2024-01-16T04:15:43.795Z,0.38
2024-01-16T04:18:11.772Z,0.37
2024-01-16T04:20:39.621Z,0.41
2024-01-16T04:23:08.521Z,0.32
2024-01-16T04:25:37.708Z,0.27
2024-01-16T04:28:06.043Z,0.30
2024-01-16T04:30:33.873Z,0.35
2024-01-16T04:33:01.838Z,0.42
2024-01-16T04:35:29.694Z,0.37
2024-01-16T04:37:57.476Z,0.35
2024-01-16T04:40:25.270Z,0.34
2024-01-16T04:42:54.347Z,0.36
2024-01-16T04:45:22.262Z,0.39
2024-01-16T04:47:50.230Z,0.45
2024-01-16T04:50:18.113Z,0.43
2024-01-16T04:52:45.961Z,0.38
2024-01-16T04:55:13.837Z,0.39
2024-01-16T04:57:42.148Z,0.34
2024-01-16T05:00:13.237Z,0.45
2024-01-16T05:02:41.097Z,0.45
2024-01-16T05:05:09.124Z,0.48
2024-01-16T05:07:37.097Z,0.50
2024-01-16T05:10:05.392Z,0.51
2024-01-16T05:12:35.584Z,0.40
2024-01-16T05:15:03.369Z,0.38
2024-01-16T05:17:33.094Z,0.39
2024-01-16T05:20:01.529Z,0.39
2024-01-16T05:22:29.305Z,0.38
2024-01-16T05:24:57.069Z,0.38
2024-01-16T05:27:26.338Z,0.36
2024-01-16T05:29:54.106Z,0.29
2024-01-16T05:32:21.906Z,0.24
2024-01-16T05:34:51.017Z,0.20
2024-01-16T05:37:19.468Z,0.17
2024-01-16T05:39:47.521Z,0.14
2024-01-16T05:42:15.478Z,0.16
2024-01-16T05:44:43.732Z,0.14
2024-01-16T05:47:11.694Z,0.14
2024-01-16T05:49:39.584Z,0.19
2024-01-16T05:52:08.938Z,0.24
2024-01-16T05:54:36.710Z,0.21
2024-01-16T05:57:04.766Z,0.22
2024-01-16T05:59:32.582Z,0.19
2024-01-16T06:02:00.694Z,0.18
2024-01-16T06:04:28.501Z,0.17
2024-01-16T06:06:56.390Z,0.20
2024-01-16T06:09:25.587Z,0.17
2024-01-16T06:11:53.533Z,0.22
2024-01-16T06:14:23.055Z,0.27
2024-01-16T06:16:51.928Z,0.35
2024-01-16T06:19:19.802Z,0.27
2024-01-16T06:21:47.623Z,0.23
2024-01-16T06:24:15.383Z,0.29
2024-01-16T06:26:44.550Z,0.39
2024-01-16T06:29:21.443Z,0.40
2024-01-16T06:31:56.219Z,0.49
2024-01-16T06:34:24.394Z,0.53
2024-01-16T06:36:52.224Z,0.56
2024-01-16T06:39:19.924Z,0.56
2024-01-16T06:41:49.107Z,0.61
2024-01-16T06:44:17.013Z,0.66
2024-01-16T06:46:44.761Z,0.77
2024-01-16T06:49:12.728Z,0.85
2024-01-16T06:51:40.545Z,0.82
2024-01-16T06:54:08.393Z,0.79
2024-01-16T06:56:36.219Z,0.72
2024-01-16T06:59:06.400Z,0.82
2024-01-16T07:01:35.279Z,0.85
2024-01-16T07:04:03.075Z,0.80
2024-01-16T07:06:30.950Z,0.78
2024-01-16T07:08:58.791Z,0.72
2024-01-16T07:11:26.566Z,0.67
2024-01-16T07:13:54.337Z,0.55
2024-01-16T07:16:23.499Z,0.63
2024-01-16T07:18:51.379Z,0.55
2024-01-16T07:21:19.832Z,0.59
2024-01-16T07:23:47.844Z,0.68
2024-01-16T07:26:17.442Z,0.68
2024-01-16T07:28:45.679Z,0.63
2024-01-16T07:31:13.686Z,0.70
2024-01-16T07:33:42.894Z,0.63
2024-01-16T07:36:11.294Z,0.70
2024-01-16T07:38:39.118Z,0.73
2024-01-16T07:41:07.324Z,0.74
2024-01-16T07:43:36.219Z,0.88
2024-01-16T07:46:04.651Z,0.94
2024-01-16T07:48:32.608Z,0.96
2024-01-16T07:51:01.829Z,0.91
2024-01-16T07:53:29.629Z,0.95
2024-01-16T07:55:57.673Z,1.05
2024-01-16T07:58:25.451Z,0.93
2024-01-16T08:00:53.354Z,1.03
2024-01-16T08:03:21.207Z,1.13
2024-01-16T08:05:49.093Z,1.14
2024-01-16T08:08:18.311Z,1.15
2024-01-16T08:10:46.164Z,1.26
2024-01-16T08:13:14.058Z,1.19
2024-01-16T08:15:41.861Z,1.25
2024-01-16T08:18:09.728Z,1.25
2024-01-16T08:20:37.641Z,1.27
2024-01-16T08:23:05.464Z,1.35
2024-01-16T08:25:34.539Z,1.46
2024-01-16T08:28:03.012Z,1.35
2024-01-16T08:30:30.868Z,1.45
2024-01-16T08:32:58.806Z,1.59
2024-01-16T08:35:26.942Z,1.74
2024-01-16T08:37:54.836Z,1.98
2024-01-16T08:40:22.624Z,1.98
2024-01-16T08:42:57.994Z,2.15
2024-01-16T08:45:27.042Z,2.31
2024-01-16T08:47:54.983Z,2.23
2024-01-16T08:50:23.116Z,2.19
2024-01-16T08:52:51.511Z,2.37
2024-01-16T08:55:19.268Z,2.39
2024-01-16T08:57:47.015Z,2.42
2024-01-16T09:00:17.536Z,2.71
2024-01-16T09:02:45.597Z,2.92
2024-01-16T09:05:14.543Z,2.63
2024-01-16T09:07:42.468Z,3.19
2024-01-16T09:10:11.137Z,3.85
2024-01-16T09:12:38.921Z,4.21
2024-01-16T09:15:07.971Z,6.05
2024-01-16T09:17:37.217Z,7.73
2024-01-16T09:20:05.848Z,9.14
2024-01-16T09:22:33.646Z,9.65
2024-01-16T09:25:02.594Z,9.82
2024-01-16T09:27:30.362Z,9.41
2024-01-16T09:29:58.191Z,8.57
2024-01-16T09:32:26.112Z,7.52
2024-01-16T09:34:55.345Z,8.87
2024-01-16T09:37:24.180Z,9.59
2024-01-16T09:39:52.194Z,7.53
2024-01-16T09:42:21.855Z,6.28
2024-01-16T09:44:50.988Z,5.78
2024-01-16T09:47:19.656Z,4.87
2024-01-16T09:49:48.932Z,4.85
2024-01-16T09:52:18.229Z,4.41
2024-01-16T09:54:46.035Z,4.03
2024-01-16T09:57:15.408Z,4.10
2024-01-16T09:59:43.837Z,4.46
2024-01-16T10:02:13.995Z,4.61
2024-01-16T10:04:43.428Z,4.43
2024-01-16T10:07:16.526Z,4.48
2024-01-16T10:09:46.664Z,4.85
2024-01-16T10:12:15.887Z,4.49
2024-01-16T10:14:47.196Z,4.94
2024-01-16T10:17:18.428Z,5.14
2024-01-16T10:19:54.376Z,5.39
2024-01-16T10:22:25.834Z,5.16
2024-01-16T10:25:06.592Z,5.68
2024-01-16T10:27:35.056Z,5.23
2024-01-16T10:30:06.668Z,5.40
2024-01-16T10:32:37.211Z,5.26
2024-01-16T10:35:08.434Z,5.07
2024-01-16T10:37:50.793Z,4.89
2024-01-16T10:40:23.610Z,4.62
2024-01-16T10:42:59.906Z,4.91
2024-01-16T10:45:27.892Z,4.89
2024-01-16T10:48:03.434Z,4.95
2024-01-16T10:50:31.353Z,4.62
2024-01-16T10:53:05.323Z,4.88
2024-01-16T10:55:42.254Z,4.78
2024-01-16T10:58:14.365Z,4.92
2024-01-16T11:00:44.982Z,4.84
2024-01-16T11:03:20.934Z,4.79
2024-01-16T11:05:50.297Z,4.49
2024-01-16T11:08:19.343Z,4.54
2024-01-16T11:10:51.158Z,4.81
2024-01-16T11:13:20.381Z,4.38
2024-01-16T11:15:51.724Z,4.38
2024-01-16T11:18:20.758Z,4.68
2024-01-16T11:21:03.074Z,4.66
2024-01-16T11:23:35.984Z,4.41
2024-01-16T11:26:26.942Z,4.21
2024-01-16T11:28:57.463Z,3.93
2024-01-16T11:31:32.848Z,4.14
2024-01-16T11:34:02.274Z,4.32
2024-01-16T11:36:55.262Z,3.98
2024-01-16T11:39:25.952Z,4.59
2024-01-16T11:41:59.315Z,4.73
2024-01-16T11:44:44.754Z,5.23
2024-01-16T11:47:21.037Z,4.93
2024-01-16T11:49:49.812Z,4.37
2024-01-16T11:52:44.173Z,4.14
2024-01-16T11:55:27.830Z,4.01
2024-01-16T11:58:18.214Z,3.84
2024-01-16T12:00:47.917Z,4.10
2024-01-16T12:03:28.762Z,3.97
2024-01-16T12:06:07.358Z,3.74
2024-01-16T12:08:36.771Z,3.73
2024-01-16T12:11:05.176Z,3.56
2024-01-16T12:13:34.641Z,3.46
2024-01-16T12:16:03.450Z,3.17
2024-01-16T12:18:40.305Z,3.06
2024-01-16T12:21:14.071Z,3.04
2024-01-16T12:23:49.463Z,3.04
2024-01-16T12:26:23.697Z,3.18
2024-01-16T12:28:57.639Z,3.38
2024-01-16T12:31:28.369Z,3.31
2024-01-16T12:34:06.532Z,3.41
2024-01-16T12:36:34.397Z,3.40
2024-01-16T12:39:02.370Z,3.46
2024-01-16T12:41:44.129Z,3.26
2024-01-16T12:44:16.796Z,3.17
2024-01-16T12:46:47.152Z,3.33
2024-01-16T12:50:00.961Z,3.37
2024-01-16T12:52:30.973Z,3.37
2024-01-16T12:55:02.707Z,3.30
2024-01-16T12:57:30.821Z,3.28
2024-01-16T13:00:03.549Z,3.16
2024-01-16T13:02:32.322Z,3.20
2024-01-16T13:05:01.496Z,3.19
2024-01-16T13:07:31.901Z,3.38
2024-01-16T13:10:14.063Z,3.25
2024-01-16T13:12:42.439Z,3.12
2024-01-16T13:15:12.640Z,3.08
2024-01-16T13:17:40.782Z,3.14
2024-01-16T13:20:11.837Z,3.14
2024-01-16T13:22:44.864Z,2.77
2024-01-16T13:25:16.698Z,2.86
2024-01-16T13:27:44.867Z,2.90
2024-01-16T13:30:15.985Z,3.00
2024-01-16T13:32:44.096Z,2.99
2024-01-16T13:35:13.794Z,2.95
2024-01-16T13:37:51.252Z,2.97
2024-01-16T13:40:22.069Z,2.60
2024-01-16T13:42:51.066Z,2.61
2024-01-16T13:45:20.650Z,2.79
2024-01-16T13:47:49.188Z,2.75
2024-01-16T13:50:18.623Z,2.65
2024-01-16T13:52:46.754Z,2.72
2024-01-16T13:55:14.810Z,2.47
2024-01-16T13:57:42.786Z,2.53
2024-01-16T14:00:15.236Z,2.48
2024-01-16T14:02:45.888Z,2.65
2024-01-16T14:05:16.565Z,2.49
2024-01-16T14:07:47.353Z,2.32
2024-01-16T14:10:16.423Z,2.38
2024-01-16T14:12:45.881Z,2.25
2024-01-16T14:15:20.497Z,2.34
2024-01-16T14:17:51.720Z,2.24
2024-01-16T14:20:27.125Z,2.12
2024-01-16T14:22:55.810Z,2.09
2024-01-16T14:25:24.322Z,2.16
2024-01-16T14:28:00.066Z,2.27
2024-01-16T14:30:29.854Z,2.10
2024-01-16T14:32:59.136Z,2.08
2024-01-16T14:35:27.527Z,2.11
2024-01-16T14:37:56.385Z,2.13
2024-01-16T14:40:27.332Z,2.25
2024-01-16T14:42:57.532Z,2.32
2024-01-16T14:45:26.159Z,2.36
2024-01-16T14:47:55.510Z,2.32
2024-01-16T14:50:26.339Z,2.43
2024-01-16T14:52:54.915Z,2.41
2024-01-16T14:55:23.856Z,2.42
2024-01-16T14:57:54.239Z,2.47
2024-01-16T15:00:24.855Z,2.37
2024-01-16T15:02:52.877Z,2.35
2024-01-16T15:05:21.851Z,2.29
2024-01-16T15:07:53.108Z,2.19
2024-01-16T15:10:21.908Z,2.16
2024-01-16T15:12:49.989Z,2.21
2024-01-16T15:15:18.081Z,2.31
2024-01-16T15:17:46.693Z,2.22
2024-01-16T15:20:14.728Z,2.02
2024-01-16T15:22:46.631Z,1.96
2024-01-16T15:25:17.800Z,1.91
2024-01-16T15:27:49.398Z,1.87
2024-01-16T15:30:18.982Z,1.71
2024-01-16T15:32:47.192Z,1.57
2024-01-16T15:35:15.101Z,1.36
2024-01-16T15:37:45.284Z,1.34
2024-01-16T15:40:14.221Z,1.26
2024-01-16T15:42:44.797Z,1.21
2024-01-16T15:45:14.621Z,1.25
2024-01-16T15:47:44.553Z,1.18
2024-01-16T15:50:13.868Z,1.09
2024-01-16T15:52:42.054Z,1.08
2024-01-16T15:55:11.733Z,1.09
2024-01-16T15:57:39.777Z,0.89
2024-01-16T16:00:11.596Z,0.89
2024-01-16T16:02:40.310Z,0.87
2024-01-16T16:05:09.322Z,0.75
2024-01-16T16:07:37.279Z,0.83
2024-01-16T16:10:05.543Z,0.86
2024-01-16T16:12:33.295Z,0.86
2024-01-16T16:15:01.231Z,0.93
2024-01-16T16:17:30.545Z,0.88
2024-01-16T16:20:00.835Z,0.96
2024-01-16T16:22:28.737Z,0.90
2024-01-16T16:24:58.444Z,1.05
2024-01-16T16:27:31.129Z,1.04
2024-01-16T16:29:59.439Z,0.92
2024-01-16T16:32:27.940Z,0.99
2024-01-16T16:34:57.654Z,1.10
2024-01-16T16:37:25.443Z,1.06
2024-01-16T16:39:55.510Z,1.17
2024-01-16T16:42:23.435Z,1.05
2024-01-16T16:44:51.372Z,1.11
2024-01-16T16:47:19.677Z,1.06
2024-01-16T16:49:47.979Z,1.18
2024-01-16T16:52:18.832Z,1.18
2024-01-16T16:54:48.930Z,1.14
2024-01-16T16:57:16.748Z,1.10
2024-01-16T16:59:46.469Z,1.06
2024-01-16T17:02:15.657Z,1.16
2024-01-16T17:04:44.586Z,1.13
2024-01-16T17:07:13.787Z,1.18
2024-01-16T17:09:44.324Z,1.16
2024-01-16T17:12:12.626Z,1.07
2024-01-16T17:14:42.116Z,1.16
2024-01-16T17:17:12.131Z,1.23
2024-01-16T17:19:41.563Z,1.22
2024-01-16T17:22:10.220Z,1.10
2024-01-16T17:24:38.351Z,1.22
2024-01-16T17:27:08.241Z,1.07
2024-01-16T17:29:36.486Z,1.12
2024-01-16T17:32:04.795Z,1.24
2024-01-16T17:34:32.649Z,1.25
2024-01-16T17:37:00.558Z,1.22
2024-01-16T17:39:29.048Z,1.23
2024-01-16T17:41:56.972Z,1.05
2024-01-16T17:44:26.113Z,1.06
2024-01-16T17:46:53.979Z,1.02
2024-01-16T17:49:23.976Z,1.02
2024-01-16T17:51:51.718Z,0.90
2024-01-16T17:54:19.445Z,0.93
2024-01-16T17:56:48.945Z,0.95
2024-01-16T17:59:17.084Z,0.88
2024-01-16T18:01:47.730Z,0.90
2024-01-16T18:04:15.719Z,0.95
2024-01-16T18:06:44.220Z,0.89
2024-01-16T18:09:12.223Z,1.07
2024-01-16T18:11:53.871Z,1.02
2024-01-16T18:14:21.650Z,1.01
2024-01-16T18:16:54.543Z,0.95
2024-01-16T18:19:25.554Z,0.92
2024-01-16T18:21:53.438Z,1.00
2024-01-16T18:24:21.866Z,1.02
2024-01-16T18:26:49.801Z,0.92
2024-01-16T18:29:21.240Z,0.93
2024-01-16T18:31:51.249Z,0.89
2024-01-16T18:34:21.623Z,0.88
2024-01-16T18:36:50.707Z,0.98
2024-01-16T18:39:20.501Z,0.85
2024-01-16T18:41:49.475Z,0.85
2024-01-16T18:44:17.448Z,0.89
2024-01-16T18:46:45.575Z,0.72
2024-01-16T18:49:15.050Z,0.77
2024-01-16T18:51:43.052Z,0.64
2024-01-16T18:54:10.852Z,0.79
2024-01-16T18:56:39.381Z,0.55
2024-01-16T18:59:07.752Z,0.62
2024-01-16T19:01:35.855Z,0.57
2024-01-16T19:04:07.824Z,0.54
2024-01-16T19:06:37.111Z,0.53
2024-01-16T19:09:06.559Z,0.33
2024-01-16T19:11:36.212Z,0.42
2024-01-16T19:14:04.411Z,0.23
2024-01-16T19:16:34.004Z,0.19
2024-01-16T19:19:01.881Z,0.25
2024-01-16T19:21:30.815Z,0.15
2024-01-16T19:24:00.066Z,0.13
2024-01-16T19:26:27.833Z,0.12
2024-01-16T19:28:55.764Z,-0.01
2024-01-16T19:31:23.559Z,0.02
2024-01-16T19:33:51.413Z,-0.01
2024-01-16T19:36:19.268Z,-0.12
2024-01-16T19:38:47.020Z,-0.07
2024-01-16T19:41:17.404Z,-0.04
2024-01-16T19:43:45.683Z,-0.09
2024-01-16T19:46:13.615Z,-0.16
2024-01-16T19:48:42.749Z,-0.13
2024-01-16T19:51:11.101Z,-0.23
2024-01-16T19:53:39.821Z,-0.19
2024-01-16T19:56:08.661Z,-0.22
2024-01-16T19:58:40.823Z,-0.29
2024-01-16T20:01:09.261Z,-0.36
2024-01-16T20:03:38.508Z,-0.21
2024-01-16T20:06:07.044Z,-0.27
2024-01-16T20:08:35.119Z,-0.32
2024-01-16T20:11:05.887Z,-0.32
2024-01-16T20:13:34.012Z,-0.36
2024-01-16T20:16:06.076Z,-0.35
2024-01-16T20:18:38.480Z,-0.42
2024-01-16T20:21:17.312Z,-0.43
2024-01-16T20:23:48.112Z,-0.51
2024-01-16T20:26:27.683Z,-0.55
2024-01-16T20:29:26.157Z,-0.47
2024-01-16T20:31:57.147Z,-0.52
2024-01-16T20:34:25.154Z,-0.51
2024-01-16T20:36:56.108Z,-0.49
2024-01-16T20:39:23.944Z,-0.56
2024-01-16T20:41:51.873Z,-0.57
2024-01-16T20:44:21.884Z,-0.63
2024-01-16T20:46:49.937Z,-0.73
2024-01-16T20:49:19.357Z,-0.69
2024-01-16T20:51:47.448Z,-0.68
2024-01-16T20:54:16.646Z,-0.69
2024-01-16T20:56:46.562Z,-0.78
2024-01-16T20:59:14.414Z,-0.72
2024-01-16T21:01:42.569Z,-0.80
2024-01-16T21:04:10.415Z,-0.83
2024-01-16T21:06:39.741Z,-0.82
2024-01-16T21:09:07.724Z,-0.81
2024-01-16T21:11:35.538Z,-0.81
2024-01-16T21:14:03.333Z,-0.82
2024-01-16T21:16:32.235Z,-0.76
2024-01-16T21:19:06.376Z,-0.78
2024-01-16T21:21:33.669Z,-0.85
2024-01-16T21:24:05.699Z,-0.90
2024-01-16T21:26:33.586Z,-0.87
2024-01-16T21:29:01.402Z,-0.86
2024-01-16T21:31:31.648Z,-0.87
2024-01-16T21:33:59.698Z,-0.96
2024-01-16T21:36:27.508Z,-0.83
2024-01-16T21:38:55.442Z,-0.95
2024-01-16T21:41:24.686Z,-0.94
2024-01-16T21:43:52.682Z,-0.95
2024-01-16T21:46:20.566Z,-0.98
2024-01-16T21:48:48.606Z,-0.96
2024-01-16T21:51:16.565Z,-0.98
2024-01-16T21:53:44.322Z,-1.04
2024-01-16T21:56:12.198Z,-1.00
2024-01-16T21:58:41.365Z,-0.87
2024-01-16T22:01:11.465Z,-0.92
2024-01-16T22:03:39.253Z,-0.90
2024-01-16T22:06:07.505Z,-1.02
2024-01-16T22:08:35.604Z,-1.04
2024-01-16T22:11:06.182Z,-0.97
2024-01-16T22:13:34.185Z,-0.93
2024-01-16T22:16:04.726Z,-0.94
2024-01-16T22:18:33.127Z,-0.96
2024-01-16T22:21:02.873Z,-0.91
2024-01-16T22:23:31.112Z,-0.96
2024-01-16T22:26:01.325Z,-1.06
2024-01-16T22:28:29.688Z,-0.86
2024-01-16T22:30:57.953Z,-1.03
2024-01-16T22:33:28.388Z,-0.89
2024-01-16T22:35:56.817Z,-0.98
2024-01-16T22:38:25.155Z,-1.16
2024-01-16T22:40:52.959Z,-1.04
2024-01-16T22:43:20.796Z,-1.07
2024-01-16T22:45:50.558Z,-1.04
2024-01-16T22:48:18.490Z,-1.01
2024-01-16T22:50:50.825Z,-1.06
2024-01-16T22:53:18.936Z,-1.15
2024-01-16T22:55:47.871Z,-1.13
2024-01-16T22:58:16.903Z,-1.06
2024-01-16T23:00:44.854Z,-1.08
2024-01-16T23:03:14.381Z,-1.13
2024-01-16T23:05:44.279Z,-1.08
2024-01-16T23:08:19.399Z,-1.14
2024-01-16T23:10:47.661Z,-1.03
2024-01-16T23:13:16.592Z,-1.06
2024-01-16T23:15:46.287Z,-1.04
2024-01-16T23:20:42.649Z,-1.19
2024-01-16T23:23:12.950Z,-1.14
2024-01-16T23:25:42.291Z,-1.25
2024-01-16T23:28:10.058Z,-1.28
2024-01-16T23:30:40.440Z,-1.28
2024-01-16T23:33:09.208Z,-1.25
2024-01-16T23:35:37.247Z,-1.25
2024-01-16T23:38:06.993Z,-1.31
2024-01-16T23:40:34.799Z,-1.27
2024-01-16T23:43:04.462Z,-1.29
2024-01-16T23:45:34.999Z,-1.38
2024-01-16T23:48:03.386Z,-1.48
2024-01-16T23:50:31.803Z,-1.40
2024-01-16T23:53:00.020Z,-1.37
2024-01-16T23:55:27.789Z,-1.47
2024-01-16T23:57:59.114Z,-1.40
